Andheri East, India

9:43 AM IST on June 29, 2017 (GMT +0530)
Chhatrapati Shivaji International | | Change Station

Elev 46 ft 19.12 °N, 72.85 °E | Updated 13 minutes ago

Haze
Haze
84 °F
Feels Like 96 °F
N
12
Wind Variable Wind from SW
Gusts 23 mph

Today
High -- | Low -- °F
--% Chance of Precip.
Yesterday
High -- | Low -- °F
Precip. -- in
Pressure 29.62 in
Visibility 2.5 miles
Clouds Scattered Clouds 1800 ft
Scattered Clouds 2500 ft
Few 3000 ft
Mostly Cloudy 9000 ft
Heat Index 96 °F
Dew Point 79 °F
Humidity 84%
Rainfall 0.00 in
Snow Depth Not available.
6:03 AM 7:20 PM
Waxing Crescent, 31% visible
METAR VABB 290400Z 22010G20KT 4000 HZ SCT018 SCT025 FEW030CB BKN090 29/26 Q1003 NOSIG
Pressure 29.62 in
Visibility 2.5 miles
Clouds Scattered Clouds 1800 ft
Scattered Clouds 2500 ft
Few 3000 ft
Mostly Cloudy 9000 ft
Heat Index 96 °F
Dew Point 79 °F
Humidity 84%
Rainfall 0.00 in
Snow Depth Not available.
6:03 AM 7:20 PM
Waxing Crescent, 31% visible
METAR VABB 290400Z 22010G20KT 4000 HZ SCT018 SCT025 FEW030CB BKN090 29/26 Q1003 NOSIG

Get Severe Weather Alerts

Thanks for signing up!

Be on the lookout for a verification email in your inbox.

You'll start receiving the daily forecast at 6 AM.

×

10-Day Weather Forecast

No radar image for this location.
×

Almanac

Astronomy

Jun. 29, 2017 Rise Set
Actual Time
Civil Twilight
Nautical Twilight
Astronomical Twilight
Moon
Length of Visible Light
Length of Day
Tomorrow will be .
, % of the Moon is Illuminated

Today's Extremes

Country Highs Country Lows

Community

WunderPhotos

Category 6

Welcome to Category 6. This is the collective home for Weather Underground's featured writeups by Dr. Jeff Masters (right), Bob Henson (left), Chris Burt, and other regular contributors.

Nearby

Air Quality

  Air Quality AQ Index Pollutant
Not available.

Snow Depth

Station Depth Elevation

Earthquake Activity

City Distance Mag. Time & Date
Minimum magnitude displayed is 2.5.

Coastal Water Temperatures

Place Temperature

Stations

Nearby Weather Stations

Station Location Temp. Windchill Dew Point Humidity Wind Precip. Elev Updated Type